Otura, Spain
Current Conditions -  °F | °C
As of 1:30 PM on Friday 31 Oct 2014 (Local Time) from LEGR Reporting Station
Clear Clear  
Wind Chill: 79°   Ceiling: Unl
Heat Index: 79°   Visibility: 6mi
Dew Point: 39°   Wind: 7mph
Humidity: 24%   Direction: NA
Pressure: 30.18"   Gusts: NA
Location:  37.09°N, 3.63°W
Report Text: LEGR 311230Z VRB06KT CAVOK 26/04 Q1022
Loading
Personal Weather Stations






























Interactive Weather Map
Tropical Storm Tracking
New forecast layout! Learn more

10-Day Weather Forecast

Advertisements
Track Severe Weather on mobile